CheckWX is a tool to help pilots better visualize weather data.  It is not intended as a substitute for an official pre-flight weather briefing.

05:27:53 UTC

KGJT TAF
Grand Junction Regional Airport
Grand Junction, Colorado, USA
KGJT 222343Z 2300/2324 31005KT P6SM SCT150 BKN250 FM230200 11007KT P6SM FEW180 SCT200 FM231500 14009KT P6SM FEW150 SCT200 FM231900 24006KT P6SM FEW150 FEW250

Aug-23@
00:00 UTC

Aug-23 @ 00:00 UTC

Aug-23@
02:00 UTC

Aug-23 @ 02:00 UTC

KGJT 222343Z 2300/2324 31005KT P6SM SCT150 BKN250

Expired

Wind
  • 310° at 5 KTS
Cloud Levels
  • Scattered at 15,000' AGL
  • Broken at 25,000' AGL

Aug-23@
02:00 UTC

Aug-23 @ 02:00 UTC

Aug-23@
15:00 UTC

Aug-23 @ 15:00 UTC

FM230200 11007KT P6SM FEW180 SCT200

From

From Standard forecast or significant change

Wind
  • 110° at 7 KTS
Cloud Levels
  • Few at 18,000' AGL
  • Scattered at 20,000' AGL

Aug-23@
15:00 UTC

Aug-23 @ 15:00 UTC

Aug-23@
19:00 UTC

Aug-23 @ 19:00 UTC

FM231500 14009KT P6SM FEW150 SCT200

From

From Standard forecast or significant change

Wind
  • 140° at 9 KTS
Cloud Levels
  • Few at 15,000' AGL
  • Scattered at 20,000' AGL

Aug-23@
19:00 UTC

Aug-23 @ 19:00 UTC

Aug-24@
00:00 UTC

Aug-24 @ 00:00 UTC

FM231900 24006KT P6SM FEW150 FEW250

From

From Standard forecast or significant change

Wind
  • 240° at 6 KTS
Cloud Levels
  • Few at 15,000' AGL
  • Few at 25,000' AGL